Time;durP1;ratioP1;P1;durP2;ratioP2;P2;SDS_P1;SDS_P2;PMS_P1;PMS_P2;Temp;Humidity;BMP_temperature;BMP_pressure;BME280_temperature;BME280_humidity;BME280_pressure;Samples;Min_cycle;Max_cycle;Signal;HPM_P1;HPM_P2
2022/01/14 00:02:05;;;;;;;99.47;36.03;;;1.90;99.90;;;;;;5030108;28;20056;-72
2022/01/14 00:04:32;;;;;;;101.97;37.50;;;1.90;99.90;;;;;;5031361;28;20059;-72
2022/01/14 00:06:59;;;;;;;96.43;36.05;;;1.90;99.90;;;;;;5032346;28;20056;-72
2022/01/14 00:09:26;;;;;;;87.35;35.88;;;1.80;99.90;;;;;;5031087;28;20561;-72
2022/01/14 00:11:59;;;;;;;101.03;37.10;;;1.80;99.90;;;;;;5032860;28;20049;-73
2022/01/14 00:14:40;;;;;;;109.03;41.03;;;1.80;99.90;;;;;;5034402;28;20053;-72
2022/01/14 00:17:10;;;;;;;89.45;37.58;;;1.70;99.90;;;;;;5030509;28;20517;-72
2022/01/14 00:19:37;;;;;;;111.70;38.38;;;1.60;99.90;;;;;;5029040;28;20110;-72
2022/01/14 00:22:13;;;;;;;110.80;38.42;;;1.50;99.90;;;;;;5031224;28;20055;-72
2022/01/14 00:33:08;;;;;;;112.40;41.47;;;1.50;99.90;;;;;;5053900;22;20056;-74
2022/01/14 00:35:42;;;;;;;103.53;41.05;;;1.50;99.90;;;;;;5037771;28;20072;-73
2022/01/14 00:38:10;;;;;;;106.72;41.75;;;1.50;99.90;;;;;;5025976;28;20538;-74
2022/01/14 00:40:38;;;;;;;110.20;42.08;;;1.50;99.90;;;;;;5032875;28;20120;-73
2022/01/14 00:43:04;;;;;;;108.60;39.90;;;1.50;99.90;;;;;;5043667;28;20064;-74
2022/01/14 00:45:31;;;;;;;110.65;41.00;;;1.50;99.90;;;;;;5023493;28;20055;-74
2022/01/14 00:48:02;;;;;;;111.90;41.80;;;1.50;99.90;;;;;;5020310;28;20053;-74
2022/01/14 00:50:29;;;;;;;123.88;44.60;;;1.50;99.90;;;;;;5003081;28;20049;-74
2022/01/14 00:52:56;;;;;;;114.82;41.15;;;1.50;99.90;;;;;;5006237;28;20118;-74
2022/01/14 00:55:28;;;;;;;121.72;41.35;;;1.50;99.90;;;;;;4995920;28;20036;-74
2022/01/14 01:00:30;;;;;;;116.80;41.63;;;1.40;99.90;;;;;;5040107;28;20523;-73
2022/01/14 01:02:59;;;;;;;118.38;42.25;;;1.40;99.90;;;;;;5023076;28;20079;-74
2022/01/14 01:05:26;;;;;;;116.75;44.00;;;1.30;99.90;;;;;;5040045;28;20582;-74
2022/01/14 01:08:08;;;;;;;121.30;39.53;;;1.40;99.90;;;;;;5041087;28;20529;-74
2022/01/14 01:10:39;;;;;;;113.15;40.22;;;1.30;99.90;;;;;;5024327;28;20049;-74
2022/01/14 01:13:15;;;;;;;127.07;41.20;;;1.30;99.90;;;;;;5058778;28;20048;-74
2022/01/14 01:15:42;;;;;;;107.07;42.03;;;1.40;99.90;;;;;;5031076;28;20123;-74
2022/01/14 01:18:09;;;;;;;130.15;41.22;;;1.40;99.90;;;;;;5022736;28;20051;-73
2022/01/14 01:20:36;;;;;;;118.07;41.83;;;1.30;99.90;;;;;;5039993;28;20041;-74
2022/01/14 01:23:04;;;;;;;118.75;41.75;;;1.20;99.90;;;;;;5022089;28;20139;-74
2022/01/14 01:25:48;;;;;;;128.38;42.92;;;1.30;99.90;;;;;;5019985;28;20079;-74
2022/01/14 01:28:15;;;;;;;129.43;43.33;;;1.20;99.90;;;;;;5039960;28;20048;-74
2022/01/14 01:31:04;;;;;;;129.95;44.60;;;1.20;99.90;;;;;;5038749;28;20053;-74
2022/01/14 01:33:32;;;;;;;133.38;47.55;;;1.20;99.90;;;;;;5024342;28;20139;-74
2022/01/14 01:35:59;;;;;;;133.40;45.58;;;1.10;99.90;;;;;;5042934;28;20080;-74
2022/01/14 01:38:25;;;;;;;126.57;42.22;;;1.20;99.90;;;;;;5043656;28;20131;-74
2022/01/14 01:40:53;;;;;;;130.43;45.38;;;1.00;99.90;;;;;;5051728;28;20071;-74
2022/01/14 01:43:25;;;;;;;142.73;46.60;;;1.10;99.90;;;;;;5044446;28;20148;-74
2022/01/14 01:45:54;;;;;;;132.25;46.97;;;1.00;99.90;;;;;;5020412;28;20341;-74
2022/01/14 01:48:21;;;;;;;152.60;50.25;;;1.00;99.90;;;;;;5005949;28;20530;-74
2022/01/14 01:50:48;;;;;;;156.40;49.47;;;0.90;99.90;;;;;;5023650;28;20099;-74
2022/01/14 01:53:15;;;;;;;137.68;47.95;;;0.90;99.90;;;;;;5008501;28;20038;-74
2022/01/14 01:55:43;;;;;;;166.02;52.80;;;0.80;99.90;;;;;;5013646;28;20132;-74
2022/01/14 01:58:09;;;;;;;154.25;50.83;;;0.80;99.90;;;;;;5043629;28;20122;-74
2022/01/14 02:00:36;;;;;;;157.35;53.83;;;0.70;99.90;;;;;;5042882;28;20706;-73
2022/01/14 02:03:04;;;;;;;181.45;54.88;;;0.70;99.90;;;;;;5044667;28;20041;-74
2022/01/14 02:05:31;;;;;;;165.45;54.45;;;0.70;99.90;;;;;;5043418;28;20049;-74
2022/01/14 02:07:58;;;;;;;171.63;54.63;;;0.70;99.90;;;;;;5043036;28;20045;-74
2022/01/14 02:10:26;;;;;;;171.00;55.70;;;0.70;99.90;;;;;;5016144;28;20522;-74
2022/01/14 02:12:53;;;;;;;190.35;58.50;;;0.70;99.90;;;;;;5045826;28;20129;-74
2022/01/14 02:15:43;;;;;;;182.55;60.83;;;0.70;99.90;;;;;;5025368;28;20148;-73
2022/01/14 02:23:41;;;;;;;174.50;58.67;;;0.70;99.90;;;;;;5042259;28;20049;-74
2022/01/14 02:26:08;;;;;;;170.55;60.42;;;0.70;99.90;;;;;;5030692;28;20144;-74
2022/01/14 02:28:35;;;;;;;185.23;59.45;;;0.70;99.90;;;;;;5037394;28;20136;-74
2022/01/14 02:31:02;;;;;;;194.35;59.78;;;0.60;99.90;;;;;;5042359;28;20049;-74
2022/01/14 02:33:30;;;;;;;172.13;58.75;;;0.70;99.90;;;;;;5022486;28;20140;-73
2022/01/14 02:35:58;;;;;;;165.90;56.83;;;0.70;99.90;;;;;;5042631;28;20128;-73
2022/01/14 02:38:25;;;;;;;175.88;59.90;;;0.70;99.90;;;;;;5026341;28;20459;-74
2022/01/14 02:40:52;;;;;;;210.98;64.72;;;0.60;99.90;;;;;;5035993;28;20071;-74
2022/01/14 02:43:19;;;;;;;196.90;64.35;;;0.80;99.90;;;;;;5042766;28;20135;-74
2022/01/14 02:45:51;;;;;;;194.60;61.35;;;0.90;99.90;;;;;;5040811;28;20310;-74
2022/01/14 02:48:20;;;;;;;222.68;67.40;;;0.80;99.90;;;;;;5024003;28;20133;-73
2022/01/14 02:53:28;;;;;;;250.60;77.32;;;1.00;99.90;;;;;;5041832;28;20572;-73
2022/01/14 02:55:57;;;;;;;259.75;74.95;;;1.10;99.90;;;;;;5030002;28;20135;-73
2022/01/14 02:58:29;;;;;;;239.82;75.20;;;1.20;99.90;;;;;;4989241;28;20053;-73
2022/01/14 03:01:00;;;;;;;262.00;72.65;;;1.20;99.90;;;;;;5023228;28;20048;-73
2022/01/14 03:03:30;;;;;;;286.02;75.68;;;1.20;99.90;;;;;;5041560;28;20049;-73
2022/01/14 03:05:59;;;;;;;269.55;71.18;;;1.20;99.90;;;;;;5041617;28;20095;-73
2022/01/14 03:08:26;;;;;;;305.85;80.30;;;1.20;99.90;;;;;;5045913;28;20055;-73
2022/01/14 03:11:15;;;;;;;413.33;89.15;;;1.20;99.90;;;;;;5034652;28;20110;-73
2022/01/14 03:13:43;;;;;;;570.97;100.22;;;1.20;99.90;;;;;;5042525;28;20290;-74
2022/01/14 03:16:10;;;;;;;587.67;101.07;;;1.20;99.90;;;;;;5043131;28;20048;-74
2022/01/14 03:18:47;;;;;;;561.53;98.53;;;1.10;99.90;;;;;;5041779;28;20072;-73
2022/01/14 03:21:16;;;;;;;691.55;112.15;;;1.10;99.90;;;;;;5041797;28;20079;-74
2022/01/14 03:23:47;;;;;;;704.20;112.68;;;1.00;99.90;;;;;;5040536;28;20045;-73
2022/01/14 03:26:20;;;;;;;673.42;104.40;;;1.00;99.90;;;;;;4996371;28;20080;-73
2022/01/14 03:28:48;;;;;;;604.17;101.35;;;0.80;99.90;;;;;;5021349;28;20065;-73
2022/01/14 03:31:15;;;;;;;621.05;97.22;;;0.80;99.90;;;;;;5021306;28;20598;-73
2022/01/14 03:33:42;;;;;;;590.60;86.43;;;0.80;99.90;;;;;;5022133;28;20099;-73
2022/01/14 03:36:08;;;;;;;565.75;89.43;;;0.70;99.90;;;;;;5000001;28;20580;-75
2022/01/14 03:38:36;;;;;;;695.15;92.35;;;0.60;99.90;;;;;;5046854;28;20132;-73
2022/01/14 03:41:03;;;;;;;740.88;99.55;;;0.50;99.90;;;;;;5052651;28;20404;-72
2022/01/14 03:43:31;;;;;;;468.27;73.07;;;0.50;99.90;;;;;;5034968;28;20053;-73
2022/01/14 03:45:58;;;;;;;569.97;80.95;;;0.50;99.90;;;;;;5036340;28;20491;-74
2022/01/14 03:48:25;;;;;;;541.70;76.97;;;0.50;99.90;;;;;;5020385;28;20053;-73
2022/01/14 03:50:52;;;;;;;552.22;79.40;;;0.50;99.90;;;;;;5003849;28;20057;-73
2022/01/14 03:53:19;;;;;;;677.72;89.35;;;0.50;99.90;;;;;;5028150;28;20124;-73
2022/01/14 03:55:46;;;;;;;758.13;105.35;;;0.60;99.90;;;;;;5014592;28;20226;-73
2022/01/14 03:58:33;;;;;;;682.60;85.47;;;0.60;99.90;;;;;;5059955;28;20048;-73
2022/01/14 04:00:59;;;;;;;1032.80;132.65;;;0.60;99.90;;;;;;5060778;28;20078;-72
2022/01/14 04:03:26;;;;;;;554.72;77.28;;;0.60;99.90;;;;;;5061435;28;20052;-74
2022/01/14 04:05:53;;;;;;;613.65;86.20;;;0.50;99.90;;;;;;5053735;28;20132;-74
2022/01/14 04:08:20;;;;;;;566.90;77.30;;;0.50;99.90;;;;;;5026863;28;20121;-74
2022/01/14 04:10:51;;;;;;;482.85;69.47;;;0.50;99.90;;;;;;5034828;28;20047;-74
2022/01/14 04:13:34;;;;;;;621.00;87.43;;;0.50;99.90;;;;;;5043612;28;20044;-74
2022/01/14 04:16:01;;;;;;;637.80;89.65;;;0.60;99.90;;;;;;5025546;28;20064;-74
2022/01/14 04:18:28;;;;;;;659.17;91.22;;;0.70;99.90;;;;;;5022564;28;20103;-74
2022/01/14 04:20:55;;;;;;;459.63;71.13;;;0.70;99.90;;;;;;5040334;28;20293;-74
2022/01/14 04:23:22;;;;;;;506.33;77.82;;;0.70;99.90;;;;;;5016423;28;20049;-74
2022/01/14 04:25:52;;;;;;;559.75;78.85;;;0.70;99.90;;;;;;5010475;28;20042;-74
2022/01/14 04:28:21;;;;;;;661.25;93.53;;;0.70;99.90;;;;;;5019950;28;20508;-74
2022/01/14 04:30:54;;;;;;;627.97;89.30;;;0.70;99.90;;;;;;5040755;28;20584;-74
2022/01/14 04:33:26;;;;;;;491.17;73.65;;;0.70;99.90;;;;;;5022840;28;20053;-74
2022/01/14 04:35:58;;;;;;;422.48;62.15;;;0.70;99.90;;;;;;5038475;28;20115;-74
2022/01/14 04:38:26;;;;;;;537.38;79.00;;;0.60;99.90;;;;;;5010721;28;20305;-74
2022/01/14 04:40:54;;;;;;;534.30;75.32;;;0.60;99.90;;;;;;5052023;28;20044;-74
2022/01/14 04:43:21;;;;;;;574.72;81.00;;;0.60;99.90;;;;;;5060855;28;20076;-74
2022/01/14 04:48:32;;;;;;;571.67;85.57;;;0.70;99.90;;;;;;5031430;28;20077;-74
2022/01/14 04:51:01;;;;;;;540.83;82.47;;;0.70;99.90;;;;;;5040252;28;20065;-75
2022/01/14 04:53:28;;;;;;;534.50;76.05;;;0.70;99.90;;;;;;5017548;28;20045;-75
2022/01/14 04:55:56;;;;;;;484.30;75.43;;;0.70;99.90;;;;;;5028510;28;20065;-75
2022/01/14 04:58:24;;;;;;;452.45;75.32;;;0.70;99.90;;;;;;5010510;28;20072;-75
2022/01/14 05:00:51;;;;;;;482.35;76.20;;;0.70;99.90;;;;;;5021244;28;20092;-75
2022/01/14 05:03:18;;;;;;;552.30;79.85;;;0.70;99.90;;;;;;5023012;28;20258;-73
2022/01/14 05:05:48;;;;;;;515.38;75.75;;;0.70;99.90;;;;;;5039635;28;20329;-75
2022/01/14 05:08:22;;;;;;;544.80;79.07;;;0.70;99.90;;;;;;5027684;28;20076;-75
2022/01/14 05:13:15;;;;;;;567.00;79.88;;;0.70;99.90;;;;;;5043354;28;20116;-74
2022/01/14 05:15:42;;;;;;;528.08;76.63;;;0.70;99.90;;;;;;5026592;28;20095;-73
2022/01/14 05:18:09;;;;;;;515.47;77.00;;;0.80;99.90;;;;;;5009353;28;20686;-73
2022/01/14 05:20:36;;;;;;;359.73;52.97;;;0.70;99.90;;;;;;5009726;28;20523;-73
2022/01/14 05:23:03;;;;;;;556.28;84.50;;;0.80;99.90;;;;;;5009779;28;20531;-74
2022/01/14 05:25:30;;;;;;;511.23;76.68;;;0.80;99.90;;;;;;5029381;28;20061;-76
2022/01/14 05:27:57;;;;;;;519.75;78.28;;;0.80;99.90;;;;;;5036746;28;20067;-75
2022/01/14 05:30:24;;;;;;;594.00;80.13;;;0.80;99.90;;;;;;5043877;28;20065;-73
2022/01/14 05:32:53;;;;;;;666.50;94.90;;;0.80;99.90;;;;;;5008892;28;20132;-73
2022/01/14 05:35:26;;;;;;;506.45;74.82;;;0.80;99.90;;;;;;5042486;28;20185;-73
2022/01/14 05:37:53;;;;;;;505.77;73.85;;;0.90;99.90;;;;;;5024980;28;20073;-73
2022/01/14 05:40:23;;;;;;;489.35;68.40;;;0.90;99.90;;;;;;5054496;28;20120;-73
2022/01/14 05:42:50;;;;;;;446.38;71.47;;;0.90;99.90;;;;;;5063833;28;20045;-73
2022/01/14 05:45:17;;;;;;;575.00;85.40;;;1.00;99.90;;;;;;5029874;28;20080;-73
2022/01/14 05:47:44;;;;;;;629.17;93.80;;;1.00;99.90;;;;;;5042951;28;20396;-73
2022/01/14 05:50:16;;;;;;;395.10;60.05;;;1.00;99.90;;;;;;5043209;28;20059;-73
2022/01/14 05:52:44;;;;;;;436.75;63.25;;;1.00;99.90;;;;;;5044637;28;20045;-72
2022/01/14 05:55:13;;;;;;;525.67;79.95;;;1.00;99.90;;;;;;5016391;28;20037;-73
2022/01/14 05:57:40;;;;;;;571.22;74.15;;;1.10;99.90;;;;;;5024123;28;20110;-73
2022/01/14 06:00:12;;;;;;;626.97;85.82;;;1.10;99.90;;;;;;5043735;28;20128;-73
2022/01/14 06:02:46;;;;;;;509.98;72.93;;;1.10;99.90;;;;;;5048414;28;20202;-72
2022/01/14 06:05:14;;;;;;;509.83;80.15;;;1.20;99.90;;;;;;5043365;28;20052;-72
2022/01/14 06:07:41;;;;;;;516.28;77.60;;;1.20;99.90;;;;;;5024360;28;20056;-72
2022/01/14 06:10:09;;;;;;;559.78;77.30;;;1.20;99.90;;;;;;5049005;28;20119;-72
2022/01/14 06:12:36;;;;;;;506.52;75.97;;;1.20;99.90;;;;;;5023262;28;20140;-72
2022/01/14 06:15:04;;;;;;;470.35;72.88;;;1.30;99.90;;;;;;5025522;28;20346;-72
2022/01/14 06:17:30;;;;;;;587.53;81.90;;;1.30;99.90;;;;;;5042191;28;20055;-72
2022/01/14 06:19:57;;;;;;;596.55;84.82;;;1.20;99.90;;;;;;5042027;28;20075;-73
2022/01/14 06:22:24;;;;;;;647.90;97.60;;;1.30;99.90;;;;;;5023296;28;20071;-73
2022/01/14 06:24:50;;;;;;;627.67;87.72;;;1.30;99.90;;;;;;5032239;28;20547;-72
2022/01/14 06:27:17;;;;;;;778.80;105.80;;;1.30;99.90;;;;;;5005148;28;20076;-72
2022/01/14 06:29:44;;;;;;;641.55;92.00;;;1.20;99.90;;;;;;5038684;28;20478;-72
2022/01/14 06:32:11;;;;;;;635.95;93.78;;;1.30;99.90;;;;;;5047298;22;20510;-79
2022/01/14 06:34:38;;;;;;;694.83;101.97;;;1.30;99.90;;;;;;5023112;28;20041;-77
2022/01/14 06:37:05;;;;;;;792.38;119.45;;;1.30;99.90;;;;;;5021675;28;20061;-77
2022/01/14 06:39:31;;;;;;;610.85;85.88;;;1.30;99.90;;;;;;5031232;28;20041;-77
2022/01/14 06:41:59;;;;;;;588.78;85.82;;;1.20;99.90;;;;;;5007236;28;20254;-77
2022/01/14 06:44:25;;;;;;;668.15;98.68;;;1.20;99.90;;;;;;5005318;28;20073;-76
2022/01/14 06:46:52;;;;;;;485.67;79.53;;;1.20;99.90;;;;;;4985603;28;20085;-76
2022/01/14 06:49:19;;;;;;;598.90;92.40;;;1.20;99.90;;;;;;4999728;28;20401;-76
2022/01/14 06:51:46;;;;;;;588.70;84.30;;;1.20;99.90;;;;;;4996584;28;20673;-76
2022/01/14 06:54:13;;;;;;;748.63;109.30;;;1.20;99.90;;;;;;4998116;28;20240;-76
2022/01/14 06:56:40;;;;;;;667.10;101.93;;;1.10;99.90;;;;;;4996839;28;20050;-76
2022/01/14 06:59:12;;;;;;;706.38;110.07;;;1.10;99.90;;;;;;4967810;28;20046;-76
2022/01/14 07:01:39;;;;;;;663.42;99.38;;;1.10;99.90;;;;;;5005863;28;20045;-76
2022/01/14 07:04:06;;;;;;;735.53;102.80;;;1.10;99.90;;;;;;4982681;28;20061;-76
2022/01/14 07:06:33;;;;;;;720.35;106.47;;;1.10;99.90;;;;;;4994692;28;20193;-77
2022/01/14 07:08:59;;;;;;;715.03;103.90;;;1.10;99.90;;;;;;5010506;28;20123;-76
2022/01/14 07:11:31;;;;;;;696.08;90.93;;;1.10;99.90;;;;;;5025644;28;20053;-76
2022/01/14 07:13:57;;;;;;;650.88;90.63;;;1.10;99.90;;;;;;5004484;28;20099;-76
2022/01/14 07:16:24;;;;;;;639.10;96.15;;;1.10;99.90;;;;;;5004155;28;20058;-76
2022/01/14 07:18:51;;;;;;;528.45;75.53;;;1.20;99.90;;;;;;5004244;28;20399;-76
2022/01/14 07:21:18;;;;;;;751.60;110.63;;;1.20;99.90;;;;;;5003974;28;20107;-77
2022/01/14 07:23:45;;;;;;;682.45;98.13;;;1.20;99.90;;;;;;4998109;28;20128;-76
2022/01/14 07:26:13;;;;;;;704.67;98.70;;;1.20;99.90;;;;;;4993943;28;20411;-76
2022/01/14 07:28:40;;;;;;;804.05;111.10;;;1.30;99.90;;;;;;4980180;28;20362;-76
2022/01/14 07:31:12;;;;;;;653.88;95.75;;;1.30;99.90;;;;;;4967203;28;20046;-76
2022/01/14 07:33:39;;;;;;;589.08;94.53;;;1.40;99.90;;;;;;4994468;28;20048;-76
2022/01/14 07:36:06;;;;;;;660.05;94.70;;;1.40;99.90;;;;;;5002373;28;20764;-77
2022/01/14 07:38:32;;;;;;;618.55;90.25;;;1.40;99.90;;;;;;4984188;28;20068;-76
2022/01/14 07:40:59;;;;;;;481.45;81.15;;;1.40;99.90;;;;;;5003500;28;20608;-76
2022/01/14 07:43:26;;;;;;;628.00;97.80;;;1.40;99.90;;;;;;5004340;28;20134;-77
2022/01/14 07:45:53;;;;;;;753.20;102.85;;;1.40;99.90;;;;;;4978021;28;20591;-77
2022/01/14 07:48:19;;;;;;;633.90;102.65;;;1.40;99.90;;;;;;4991210;28;20328;-79
2022/01/14 07:50:48;;;;;;;638.35;97.63;;;1.40;99.90;;;;;;4997397;28;20154;-76
2022/01/14 07:53:15;;;;;;;781.85;107.85;;;1.40;99.90;;;;;;4985508;28;20516;-77
2022/01/14 07:55:41;;;;;;;742.83;117.68;;;1.40;99.90;;;;;;4992539;28;20042;-78
2022/01/14 07:58:08;;;;;;;687.85;106.13;;;1.40;99.90;;;;;;4980612;28;20089;-78
2022/01/14 08:00:36;;;;;;;629.10;99.72;;;1.50;99.90;;;;;;5008508;28;20119;-77
2022/01/14 08:03:03;;;;;;;710.67;103.22;;;1.50;99.90;;;;;;4991126;28;20053;-77
2022/01/14 08:05:30;;;;;;;668.60;98.53;;;1.50;99.90;;;;;;4973064;28;20064;-77
2022/01/14 08:08:03;;;;;;;867.15;121.90;;;1.50;99.90;;;;;;4991109;28;20047;-77
2022/01/14 08:10:31;;;;;;;670.67;96.63;;;1.50;99.90;;;;;;5025920;28;20058;-77
2022/01/14 08:12:58;;;;;;;620.28;96.57;;;1.50;99.90;;;;;;5008661;28;20077;-77
2022/01/14 08:15:31;;;;;;;714.28;104.65;;;1.60;99.90;;;;;;5009355;28;20057;-77
2022/01/14 08:18:00;;;;;;;659.13;94.78;;;1.50;99.90;;;;;;4989955;28;20049;-77
2022/01/14 08:20:27;;;;;;;699.13;97.75;;;1.50;99.90;;;;;;4991232;28;20073;-77
2022/01/14 08:22:54;;;;;;;670.92;94.85;;;1.50;99.90;;;;;;4990280;28;20060;-77
2022/01/14 08:25:21;;;;;;;686.85;96.25;;;1.50;99.90;;;;;;4990708;28;20050;-77
2022/01/14 08:27:48;;;;;;;756.85;104.43;;;1.50;99.90;;;;;;4955016;28;20113;-77
2022/01/14 08:30:15;;;;;;;714.00;106.25;;;1.50;99.90;;;;;;4986666;28;20309;-77
2022/01/14 08:32:42;;;;;;;932.38;135.32;;;1.50;99.90;;;;;;5004002;28;20674;-77
2022/01/14 08:35:09;;;;;;;612.15;89.20;;;1.60;99.90;;;;;;5009194;28;20145;-77
2022/01/14 08:37:38;;;;;;;844.40;123.45;;;1.50;99.90;;;;;;5008381;28;20065;-77
2022/01/14 08:40:07;;;;;;;804.33;120.13;;;1.50;99.90;;;;;;5002466;28;20065;-78
2022/01/14 08:42:34;;;;;;;727.50;109.07;;;1.60;99.90;;;;;;5013172;28;20367;-78
2022/01/14 08:45:01;;;;;;;656.92;97.93;;;1.70;99.90;;;;;;5013737;28;20081;-77
2022/01/14 08:47:29;;;;;;;630.70;89.72;;;1.70;99.90;;;;;;4979605;28;20283;-77
2022/01/14 08:49:56;;;;;;;666.10;98.88;;;1.60;99.90;;;;;;5004990;28;20057;-78
2022/01/14 08:52:23;;;;;;;636.75;88.20;;;1.70;99.90;;;;;;4976991;28;20124;-78
2022/01/14 08:54:49;;;;;;;494.90;71.68;;;1.70;99.90;;;;;;4998621;28;20046;-77
2022/01/14 08:57:17;;;;;;;566.30;77.75;;;1.70;99.90;;;;;;4992310;28;20069;-78
2022/01/14 08:59:45;;;;;;;541.70;73.97;;;1.70;99.90;;;;;;5007713;28;20042;-78
2022/01/14 09:02:12;;;;;;;518.60;70.75;;;1.80;99.90;;;;;;5009622;28;20412;-78
2022/01/14 09:04:39;;;;;;;465.75;63.63;;;1.80;99.90;;;;;;4976593;28;20190;-77
2022/01/14 09:07:06;;;;;;;503.80;65.75;;;1.70;99.90;;;;;;4993814;28;20045;-77
2022/01/14 09:09:33;;;;;;;676.08;89.03;;;1.70;99.90;;;;;;5001230;28;20133;-77
2022/01/14 09:12:02;;;;;;;591.10;82.43;;;1.70;99.90;;;;;;5007675;28;20107;-78
2022/01/14 09:14:28;;;;;;;559.53;84.03;;;1.80;99.90;;;;;;5022409;28;20083;-78
2022/01/14 09:16:56;;;;;;;667.30;95.15;;;1.80;99.90;;;;;;5031785;28;20377;-77
2022/01/14 09:19:23;;;;;;;607.53;91.13;;;1.80;99.90;;;;;;5009307;28;20099;-77
2022/01/14 09:21:50;;;;;;;542.25;79.18;;;1.90;99.90;;;;;;4988599;28;20046;-80
2022/01/14 09:24:34;;;;;;;559.47;82.63;;;1.80;99.90;;;;;;4977202;28;20111;-78
2022/01/14 09:27:01;;;;;;;594.42;82.65;;;1.90;99.90;;;;;;4978055;28;20081;-78
2022/01/14 09:29:28;;;;;;;726.83;101.05;;;1.80;99.90;;;;;;4989141;28;20045;-78
2022/01/14 09:31:56;;;;;;;692.95;95.80;;;1.90;99.90;;;;;;4994793;28;20073;-78
2022/01/14 09:34:23;;;;;;;685.30;92.32;;;1.90;99.90;;;;;;4997847;28;20077;-78
2022/01/14 09:36:50;;;;;;;552.22;76.75;;;1.90;99.90;;;;;;5014281;28;20054;-78
2022/01/14 09:39:17;;;;;;;531.92;73.88;;;1.90;99.90;;;;;;5011581;28;20062;-78
2022/01/14 09:41:46;;;;;;;545.58;77.05;;;1.90;99.90;;;;;;5021935;28;20272;-78
2022/01/14 09:44:18;;;;;;;515.42;73.28;;;1.90;99.90;;;;;;4979210;28;20226;-78
2022/01/14 09:46:51;;;;;;;567.28;79.47;;;2.00;99.90;;;;;;4991780;28;20124;-78
2022/01/14 09:49:18;;;;;;;519.72;71.55;;;2.00;99.90;;;;;;4991442;28;20055;-78
2022/01/14 09:51:46;;;;;;;426.23;69.63;;;2.10;99.90;;;;;;4993390;28;20042;-78
2022/01/14 09:54:13;;;;;;;315.88;56.03;;;2.10;99.90;;;;;;5002199;28;20042;-78
2022/01/14 09:56:41;;;;;;;266.95;47.25;;;2.10;99.90;;;;;;4989526;28;20117;-78
2022/01/14 09:59:08;;;;;;;160.55;36.92;;;2.10;99.90;;;;;;4994515;28;20050;-78
2022/01/14 10:01:41;;;;;;;207.15;44.97;;;2.20;99.90;;;;;;4996794;28;20038;-78
2022/01/14 10:04:17;;;;;;;193.52;41.75;;;2.20;99.90;;;;;;4996105;28;20052;-78
2022/01/14 10:06:53;;;;;;;229.18;46.85;;;2.20;99.90;;;;;;5015728;28;20108;-78
2022/01/14 10:09:33;;;;;;;239.32;47.72;;;2.30;99.90;;;;;;5038334;28;20107;-78
2022/01/14 10:12:17;;;;;;;227.20;47.45;;;2.30;99.90;;;;;;5024955;28;20092;-78
2022/01/14 10:14:58;;;;;;;250.10;49.15;;;2.40;99.90;;;;;;4991514;28;20054;-78
2022/01/14 10:17:25;;;;;;;265.33;51.95;;;2.40;99.90;;;;;;4985050;28;20625;-78
2022/01/14 10:19:52;;;;;;;291.60;51.53;;;2.30;99.90;;;;;;5000542;28;20360;-79
2022/01/14 10:22:23;;;;;;;321.85;57.10;;;2.30;99.90;;;;;;5001653;28;20050;-79
2022/01/14 10:25:05;;;;;;;304.02;52.83;;;2.30;99.90;;;;;;4993488;28;20042;-78
2022/01/14 10:27:42;;;;;;;424.65;71.35;;;2.40;99.90;;;;;;4980381;28;20085;-78
2022/01/14 10:30:20;;;;;;;367.45;63.28;;;2.40;99.90;;;;;;4990818;28;20463;-78
2022/01/14 10:33:04;;;;;;;446.52;68.72;;;2.40;99.90;;;;;;5008111;28;20045;-79
2022/01/14 10:35:37;;;;;;;471.52;69.28;;;2.30;99.90;;;;;;4990154;28;20053;-79
2022/01/14 10:38:06;;;;;;;373.25;64.75;;;2.30;99.90;;;;;;5010253;28;20128;-78
2022/01/14 10:40:37;;;;;;;336.05;59.60;;;2.20;99.90;;;;;;5026048;28;20049;-79
2022/01/14 10:43:06;;;;;;;458.65;70.45;;;2.20;99.90;;;;;;4994589;28;20058;-78
2022/01/14 10:45:52;;;;;;;296.90;54.97;;;2.20;99.90;;;;;;5016224;28;20068;-79
2022/01/14 10:48:29;;;;;;;339.52;54.50;;;2.20;99.90;;;;;;4995599;28;20167;-79
2022/01/14 10:51:01;;;;;;;378.10;59.72;;;2.20;99.90;;;;;;5012314;28;20316;-79
2022/01/14 10:53:36;;;;;;;382.13;60.65;;;2.20;99.90;;;;;;5007611;28;20114;-79
2022/01/14 10:56:05;;;;;;;;;;;2.20;99.90;;;;;;5004880;28;20315;-78
2022/01/14 10:58:35;;;;;;;456.63;66.75;;;2.20;99.90;;;;;;5015275;28;19956;-79
2022/01/14 11:01:14;;;;;;;480.70;78.40;;;2.20;99.90;;;;;;5018076;28;20060;-78
2022/01/14 11:03:49;;;;;;;405.60;65.38;;;2.20;99.90;;;;;;5008112;28;20497;-79
2022/01/14 11:06:25;;;;;;;495.80;71.78;;;2.20;99.90;;;;;;5013473;28;20049;-78
2022/01/14 11:08:59;;;;;;;398.83;64.07;;;2.30;99.90;;;;;;5003062;28;20469;-79
2022/01/14 11:11:28;;;;;;;495.75;73.80;;;2.30;99.90;;;;;;4991548;28;20047;-79
2022/01/14 11:13:55;;;;;;;615.45;88.68;;;2.30;99.90;;;;;;5025126;28;20049;-79
2022/01/14 11:16:22;;;;;;;403.80;63.72;;;2.40;99.90;;;;;;5004109;28;20433;-79
2022/01/14 11:18:50;;;;;;;442.65;68.60;;;2.30;99.90;;;;;;5003735;28;20044;-79
2022/01/14 11:24:05;;;;;;;490.35;72.95;;;2.30;99.90;;;;;;4997907;28;20562;-79
2022/01/14 11:26:35;;;;;;;615.20;91.07;;;2.40;99.90;;;;;;5009411;28;20499;-79
2022/01/14 11:29:09;;;;;;;672.83;89.10;;;2.40;99.90;;;;;;5014029;28;20478;-78
2022/01/14 11:31:38;;;;;;;553.92;77.78;;;2.40;99.90;;;;;;4995591;28;20073;-78
2022/01/14 11:34:10;;;;;;;633.65;93.32;;;2.30;99.90;;;;;;4996112;28;20049;-79
2022/01/14 11:36:56;;;;;;;672.53;90.22;;;2.40;99.90;;;;;;4995640;28;20559;-79
2022/01/14 11:39:26;;;;;;;580.65;83.90;;;2.40;99.90;;;;;;5013538;28;20159;-78
2022/01/14 11:41:59;;;;;;;606.17;84.25;;;2.40;99.90;;;;;;5014508;28;20088;-79
2022/01/14 11:44:52;;;;;;;618.15;86.75;;;2.40;99.90;;;;;;4998171;28;20050;-79
2022/01/14 11:47:25;;;;;;;713.60;106.50;;;2.50;99.90;;;;;;4993362;28;20555;-79
2022/01/14 11:49:53;;;;;;;481.38;74.18;;;2.50;99.90;;;;;;4988542;28;20046;-78
2022/01/14 11:52:43;;;;;;;499.92;79.07;;;2.50;99.90;;;;;;4991854;28;20062;-78
2022/01/14 11:55:21;;;;;;;465.65;67.57;;;2.60;99.90;;;;;;4990345;28;20498;-78
2022/01/14 11:57:55;;;;;;;467.27;70.95;;;2.60;99.90;;;;;;5007964;28;20119;-78
2022/01/14 12:00:25;;;;;;;433.25;66.88;;;2.50;99.90;;;;;;4972298;28;20049;-78
2022/01/14 12:03:25;;;;;;;490.48;73.05;;;2.50;99.90;;;;;;4989992;28;20326;-78
2022/01/14 12:05:57;;;;;;;410.25;70.90;;;2.60;99.90;;;;;;4989578;28;20052;-78
2022/01/14 12:08:39;;;;;;;344.27;62.90;;;2.60;99.90;;;;;;4986167;28;20137;-78
2022/01/14 12:11:06;;;;;;;401.73;68.28;;;2.60;99.90;;;;;;5009028;28;20061;-79
2022/01/14 12:14:00;;;;;;;390.60;67.90;;;2.60;99.90;;;;;;5005703;28;20379;-79
2022/01/14 12:16:45;;;;;;;395.25;70.85;;;2.60;99.90;;;;;;5016086;28;20213;-79
2022/01/14 12:19:17;;;;;;;460.55;75.60;;;2.70;99.90;;;;;;4981234;28;20359;-79
2022/01/14 12:21:51;;;;;;;456.73;75.10;;;2.80;99.90;;;;;;5016641;28;20049;-79
2022/01/14 12:24:18;;;;;;;376.42;67.07;;;2.80;99.90;;;;;;4998182;28;20042;-79
2022/01/14 12:26:57;;;;;;;381.10;62.55;;;2.80;99.90;;;;;;4999539;28;20081;-79
2022/01/14 12:29:31;;;;;;;377.35;60.38;;;2.90;99.90;;;;;;4997265;28;20392;-79
2022/01/14 12:32:11;;;;;;;496.77;75.60;;;3.00;99.90;;;;;;5001188;28;20121;-79
2022/01/14 12:35:03;;;;;;;586.65;81.40;;;3.00;99.90;;;;;;4999150;28;20282;-79
2022/01/14 12:37:30;;;;;;;607.25;86.10;;;3.10;99.90;;;;;;4999269;28;20050;-78
2022/01/14 12:40:09;;;;;;;580.05;91.47;;;2.90;99.90;;;;;;5017001;28;20071;-79
2022/01/14 12:42:39;;;;;;;622.95;86.95;;;2.80;99.90;;;;;;5018625;28;20268;-78
2022/01/14 12:45:10;;;;;;;829.10;114.80;;;2.70;99.90;;;;;;5001356;28;20519;-79
2022/01/14 12:47:40;;;;;;;733.50;103.28;;;2.70;99.90;;;;;;5005121;28;20050;-78
2022/01/14 12:50:11;;;;;;;596.70;86.13;;;2.80;99.90;;;;;;5008371;28;20242;-79
2022/01/14 12:52:45;;;;;;;808.83;117.28;;;2.80;99.90;;;;;;5015634;28;20045;-79
2022/01/14 12:55:12;;;;;;;797.38;113.22;;;2.90;99.90;;;;;;5008381;28;20042;-78
2022/01/14 12:57:39;;;;;;;743.47;101.47;;;2.90;99.90;;;;;;5014517;28;20109;-79
2022/01/14 13:00:08;;;;;;;818.85;110.65;;;2.90;99.90;;;;;;4996677;28;20053;-78
2022/01/14 13:02:35;;;;;;;709.63;106.57;;;2.80;99.90;;;;;;4995067;28;20488;-78
2022/01/14 13:05:20;;;;;;;752.33;110.43;;;2.80;99.90;;;;;;4996453;28;20127;-79
2022/01/14 13:07:48;;;;;;;764.28;106.60;;;2.70;99.90;;;;;;4979502;28;20061;-79